Time;durP1;ratioP1;P1;durP2;ratioP2;P2;SDS_P1;SDS_P2;PMS_P1;PMS_P2;Temp;Humidity;BMP_temperature;BMP_pressure;BME280_temperature;BME280_humidity;BME280_pressure;Samples;Min_cycle;Max_cycle;Signal;HPM_P1;HPM_P2
2021/04/07 00:01:47;;;;;;;3.85;1.48;;;2.60;51.10;;;;;;5134908;27;21709;-69
2021/04/07 00:04:14;;;;;;;8.32;2.40;;;2.60;51.00;;;;;;5135388;27;20237;-69
2021/04/07 00:06:48;;;;;;;3.17;1.60;;;2.60;51.30;;;;;;5135374;27;20199;-69
2021/04/07 00:09:20;;;;;;;3.95;1.75;;;2.60;51.50;;;;;;5135751;27;20198;-69
2021/04/07 00:11:55;;;;;;;3.55;1.48;;;2.60;51.00;;;;;;5135309;27;20205;-69
2021/04/07 00:14:23;;;;;;;5.50;1.75;;;2.60;50.90;;;;;;5135998;27;20270;-69
2021/04/07 00:16:58;;;;;;;2.00;1.40;;;2.50;50.40;;;;;;5135089;27;20651;-69
2021/04/07 00:19:33;;;;;;;5.68;2.20;;;2.60;50.10;;;;;;5135751;27;20198;-69
2021/04/07 00:22:00;;;;;;;3.45;1.85;;;2.50;49.80;;;;;;5134473;27;20223;-69
2021/04/07 00:24:32;;;;;;;4.22;2.38;;;2.50;49.60;;;;;;5134731;27;20180;-69
2021/04/07 00:27:09;;;;;;;4.05;2.30;;;2.50;49.60;;;;;;5135003;27;20217;-69
2021/04/07 00:29:50;;;;;;;3.25;2.00;;;2.50;49.20;;;;;;5135278;27;20226;-68
2021/04/07 00:32:23;;;;;;;3.95;1.63;;;2.50;48.90;;;;;;5135182;27;20176;-69
2021/04/07 00:34:59;;;;;;;5.70;1.90;;;2.50;49.00;;;;;;5134875;27;20225;-69
2021/04/07 00:37:27;;;;;;;6.57;1.95;;;2.50;49.00;;;;;;5134973;27;20183;-69
2021/04/07 00:39:59;;;;;;;4.40;2.45;;;2.50;48.60;;;;;;5135071;27;20188;-69
2021/04/07 00:42:33;;;;;;;3.47;1.67;;;2.50;48.60;;;;;;5134876;27;20581;-69
2021/04/07 00:45:05;;;;;;;7.18;1.80;;;2.40;48.50;;;;;;5134902;27;20184;-69
2021/04/07 00:47:36;;;;;;;3.10;1.85;;;2.30;48.70;;;;;;5134675;27;20936;-69
2021/04/07 00:50:10;;;;;;;2.70;1.63;;;2.20;49.60;;;;;;5134233;27;20191;-68
2021/04/07 00:52:43;;;;;;;4.97;2.17;;;2.20;49.80;;;;;;5134686;27;20175;-69
2021/04/07 00:55:16;;;;;;;4.22;1.90;;;2.10;50.20;;;;;;5134487;27;20252;-69
2021/04/07 00:57:50;;;;;;;7.50;2.05;;;2.10;50.30;;;;;;5134835;27;20183;-68
2021/04/07 01:00:27;;;;;;;4.07;1.92;;;2.10;50.20;;;;;;5135023;27;20191;-69
2021/04/07 01:02:59;;;;;;;4.15;2.20;;;2.10;50.00;;;;;;5134156;27;20680;-68
2021/04/07 01:05:31;;;;;;;2.75;1.85;;;2.10;50.10;;;;;;5134692;27;20218;-69
2021/04/07 01:08:01;;;;;;;5.70;2.50;;;2.10;50.20;;;;;;5134324;27;20267;-69
2021/04/07 01:10:33;;;;;;;3.67;2.00;;;2.20;50.20;;;;;;5134627;27;20223;-69
2021/04/07 01:13:05;;;;;;;3.17;1.90;;;2.10;49.80;;;;;;5134189;27;20187;-69
2021/04/07 01:15:35;;;;;;;2.80;2.00;;;2.10;49.60;;;;;;5134227;27;20227;-69
2021/04/07 01:18:11;;;;;;;4.18;1.70;;;2.10;49.70;;;;;;5134391;27;20244;-69
2021/04/07 01:20:41;;;;;;;2.55;1.42;;;2.20;49.50;;;;;;5134531;27;20243;-69
2021/04/07 01:23:11;;;;;;;3.55;1.70;;;2.20;49.20;;;;;;5133755;27;20576;-69
2021/04/07 01:25:40;;;;;;;3.33;1.88;;;2.20;48.80;;;;;;5133281;27;20238;-69
2021/04/07 01:28:10;;;;;;;2.67;1.65;;;2.20;48.80;;;;;;5134402;27;20200;-69
2021/04/07 01:30:46;;;;;;;4.70;1.85;;;2.20;48.80;;;;;;5133774;27;20236;-69
2021/04/07 01:33:28;;;;;;;3.42;2.20;;;2.20;48.50;;;;;;5134068;27;20233;-69
2021/04/07 01:35:55;;;;;;;2.85;1.85;;;2.20;48.70;;;;;;5133707;27;20199;-69
2021/04/07 01:38:23;;;;;;;2.95;2.08;;;2.20;48.60;;;;;;5133890;27;20526;-69
2021/04/07 01:40:56;;;;;;;4.93;1.70;;;2.20;48.50;;;;;;5134234;27;20240;-68
2021/04/07 01:43:24;;;;;;;3.05;2.10;;;2.20;48.60;;;;;;5133545;27;20179;-69
2021/04/07 01:45:53;;;;;;;5.38;1.95;;;2.20;48.70;;;;;;5133960;27;20585;-68
2021/04/07 01:48:20;;;;;;;6.72;2.15;;;2.20;48.70;;;;;;5133430;27;20212;-69
2021/04/07 01:50:53;;;;;;;5.53;2.22;;;2.20;48.80;;;;;;5133952;27;20192;-69
2021/04/07 01:53:21;;;;;;;4.72;2.20;;;2.10;49.00;;;;;;5133838;27;20215;-69
2021/04/07 01:55:58;;;;;;;3.17;1.83;;;2.10;48.90;;;;;;5132826;27;20270;-69
2021/04/07 01:58:25;;;;;;;3.03;2.00;;;2.10;48.80;;;;;;5133777;27;20179;-69
2021/04/07 02:00:56;;;;;;;4.80;2.35;;;2.00;48.90;;;;;;5133598;27;20191;-68
2021/04/07 02:03:23;;;;;;;3.53;1.80;;;1.90;49.30;;;;;;5132311;27;20672;-68
2021/04/07 02:05:51;;;;;;;5.28;2.25;;;1.90;49.50;;;;;;5133630;27;20593;-69
2021/04/07 02:08:23;;;;;;;4.43;2.33;;;1.80;49.10;;;;;;5133301;27;20183;-69
2021/04/07 02:10:53;;;;;;;3.70;2.38;;;1.80;49.30;;;;;;5133509;27;20199;-69
2021/04/07 02:13:20;;;;;;;4.35;2.30;;;1.80;49.30;;;;;;5133425;27;20187;-69
2021/04/07 02:15:49;;;;;;;8.45;2.47;;;1.70;49.40;;;;;;5132472;27;20179;-68
2021/04/07 02:18:18;;;;;;;2.70;1.95;;;1.70;49.60;;;;;;5133522;27;20196;-69
2021/04/07 02:20:49;;;;;;;2.83;1.88;;;1.70;49.50;;;;;;5133250;27;20180;-70
2021/04/07 02:23:16;;;;;;;5.30;2.50;;;1.70;49.50;;;;;;5133551;27;20223;-69
2021/04/07 02:25:45;;;;;;;3.38;2.08;;;1.70;49.60;;;;;;5131992;27;20188;-70
2021/04/07 02:28:15;;;;;;;6.43;2.80;;;1.80;49.50;;;;;;5133533;27;20191;-69
2021/04/07 02:30:44;;;;;;;4.40;2.50;;;1.70;49.80;;;;;;5133229;27;20183;-70
2021/04/07 02:33:16;;;;;;;4.03;1.90;;;1.70;49.90;;;;;;5133533;27;20194;-69
2021/04/07 02:35:42;;;;;;;2.58;2.22;;;1.70;49.90;;;;;;5133042;27;20228;-70
2021/04/07 02:38:09;;;;;;;3.42;2.10;;;1.70;50.00;;;;;;5133305;27;20202;-70
2021/04/07 02:40:39;;;;;;;2.80;2.17;;;1.60;50.20;;;;;;5132515;27;20184;-70
2021/04/07 02:43:06;;;;;;;3.85;1.90;;;1.70;50.20;;;;;;5133247;27;20212;-69
2021/04/07 02:45:34;;;;;;;3.80;2.72;;;1.70;50.10;;;;;;5133126;27;20194;-70
2021/04/07 02:48:03;;;;;;;3.13;2.05;;;1.70;50.00;;;;;;5132884;27;20266;-70
2021/04/07 02:50:30;;;;;;;3.13;2.22;;;1.70;50.10;;;;;;5132782;27;20191;-70
2021/04/07 02:52:57;;;;;;;5.35;2.50;;;1.70;50.00;;;;;;5133214;27;20203;-70
2021/04/07 02:55:29;;;;;;;4.70;2.88;;;1.70;49.90;;;;;;5132921;27;20214;-69
2021/04/07 02:58:01;;;;;;;2.85;2.45;;;1.70;49.80;;;;;;5133156;27;20252;-70
2021/04/07 03:00:28;;;;;;;3.50;2.55;;;1.70;49.80;;;;;;5132668;27;20184;-70
2021/04/07 03:02:59;;;;;;;3.65;1.95;;;1.70;49.90;;;;;;5132961;27;20769;-69
2021/04/07 03:05:26;;;;;;;3.88;1.92;;;1.70;50.00;;;;;;5132931;27;20543;-70
2021/04/07 03:07:57;;;;;;;3.25;2.30;;;1.70;50.00;;;;;;5133021;27;20191;-70
2021/04/07 03:10:27;;;;;;;3.70;2.15;;;1.80;50.00;;;;;;5133021;27;20180;-70
2021/04/07 03:13:01;;;;;;;4.05;2.22;;;1.80;49.90;;;;;;5135357;27;20227;-70
2021/04/07 03:15:30;;;;;;;7.30;2.33;;;1.80;49.80;;;;;;5136728;27;20180;-70
2021/04/07 03:17:58;;;;;;;4.20;2.53;;;1.90;49.80;;;;;;5137092;27;20267;-70
2021/04/07 03:20:30;;;;;;;3.40;2.70;;;1.90;49.70;;;;;;5136397;27;20528;-70
2021/04/07 03:23:12;;;;;;;3.97;2.45;;;1.90;49.10;;;;;;5136620;27;20748;-70
2021/04/07 03:25:40;;;;;;;4.82;2.85;;;1.80;49.10;;;;;;5136385;27;20615;-70
2021/04/07 03:28:07;;;;;;;3.38;2.60;;;1.80;49.20;;;;;;5136575;27;20188;-70
2021/04/07 03:30:49;;;;;;;4.22;2.30;;;1.90;49.20;;;;;;5136296;27;20183;-69
2021/04/07 03:33:17;;;;;;;3.20;2.40;;;1.80;49.20;;;;;;5136288;27;20188;-70
2021/04/07 03:35:46;;;;;;;4.95;2.40;;;1.80;49.20;;;;;;5136485;27;20244;-70
2021/04/07 03:38:18;;;;;;;6.15;2.47;;;1.80;49.70;;;;;;5136381;27;20192;-69
2021/04/07 03:41:04;;;;;;;4.47;2.40;;;1.80;49.90;;;;;;5136019;27;20188;-69
2021/04/07 03:43:31;;;;;;;2.67;2.03;;;1.90;50.00;;;;;;5136301;27;20241;-69
2021/04/07 03:46:07;;;;;;;4.82;2.20;;;1.90;50.10;;;;;;5136015;27;20186;-70
2021/04/07 03:48:35;;;;;;;4.25;2.47;;;1.90;50.10;;;;;;5135934;27;20294;-69
2021/04/07 03:51:03;;;;;;;5.35;2.85;;;2.00;50.20;;;;;;5135500;27;20207;-69
2021/04/07 03:53:31;;;;;;;7.40;3.50;;;1.90;50.20;;;;;;5135922;27;20199;-70
2021/04/07 03:55:59;;;;;;;3.63;2.55;;;1.90;50.40;;;;;;5135904;27;20192;-70
2021/04/07 03:58:27;;;;;;;3.28;2.55;;;2.00;50.70;;;;;;5136355;27;20191;-69
2021/04/07 04:00:55;;;;;;;4.00;2.78;;;2.10;50.60;;;;;;5135622;27;20243;-69
2021/04/07 04:03:29;;;;;;;3.55;2.38;;;2.00;50.30;;;;;;5136132;27;20255;-69
2021/04/07 04:06:02;;;;;;;5.45;2.58;;;2.00;50.50;;;;;;5135077;27;20180;-69
2021/04/07 04:08:43;;;;;;;4.03;2.58;;;2.10;50.90;;;;;;5136174;27;20183;-70
2021/04/07 04:11:12;;;;;;;3.53;2.33;;;2.10;50.70;;;;;;5135981;27;20269;-70
2021/04/07 04:13:50;;;;;;;5.55;2.30;;;2.10;50.90;;;;;;5136063;27;20196;-70
2021/04/07 04:16:17;;;;;;;3.00;2.45;;;2.10;50.90;;;;;;5135755;27;20294;-70
2021/04/07 04:18:48;;;;;;;3.95;2.95;;;2.20;51.60;;;;;;5135853;27;20184;-70
2021/04/07 04:21:16;;;;;;;4.38;2.50;;;2.30;52.20;;;;;;5135451;27;20718;-70
2021/04/07 04:23:55;;;;;;;3.53;2.20;;;2.30;52.50;;;;;;5134525;27;20240;-70
2021/04/07 04:26:22;;;;;;;3.47;2.42;;;2.40;52.90;;;;;;5135254;27;20184;-70
2021/04/07 04:28:58;;;;;;;4.93;3.03;;;2.30;53.10;;;;;;5135872;27;20183;-70
2021/04/07 04:31:25;;;;;;;3.53;2.60;;;2.40;53.70;;;;;;5135467;27;20204;-70
2021/04/07 04:33:55;;;;;;;3.95;2.78;;;2.40;53.90;;;;;;5135842;27;20191;-70
2021/04/07 04:36:25;;;;;;;3.80;2.92;;;2.40;54.40;;;;;;5135217;27;20259;-69
2021/04/07 04:38:53;;;;;;;3.53;2.00;;;2.40;54.60;;;;;;5135396;27;20192;-69
2021/04/07 04:41:20;;;;;;;2.80;1.55;;;2.20;56.70;;;;;;5135251;27;20233;-70
2021/04/07 04:43:51;;;;;;;2.45;1.80;;;2.00;57.80;;;;;;5135554;27;20578;-70
2021/04/07 04:46:18;;;;;;;3.85;2.08;;;2.00;57.10;;;;;;5134943;27;20188;-70
2021/04/07 04:48:53;;;;;;;3.15;1.83;;;2.00;56.10;;;;;;5135140;27;20310;-70
2021/04/07 04:51:22;;;;;;;4.68;2.80;;;2.00;55.50;;;;;;5135119;27;20545;-69
2021/04/07 04:53:55;;;;;;;3.85;2.35;;;2.00;55.40;;;;;;5135080;27;20586;-69
2021/04/07 04:56:30;;;;;;;2.40;1.45;;;2.10;55.50;;;;;;5134780;27;20183;-70
2021/04/07 04:59:01;;;;;;;4.28;2.20;;;2.00;55.70;;;;;;5135348;27;20187;-69
2021/04/07 05:01:28;;;;;;;4.75;2.33;;;2.10;55.50;;;;;;5134870;27;20294;-70
2021/04/07 05:04:08;;;;;;;2.50;1.70;;;2.10;55.00;;;;;;5135120;27;20609;-69
2021/04/07 05:06:46;;;;;;;5.10;2.38;;;2.10;54.60;;;;;;5134345;27;20194;-70
2021/04/07 05:09:17;;;;;;;3.20;1.98;;;2.10;54.60;;;;;;5134988;27;20252;-69
2021/04/07 05:11:49;;;;;;;5.78;2.58;;;2.10;54.30;;;;;;5134717;27;20547;-69
2021/04/07 05:14:19;;;;;;;3.22;2.22;;;2.10;54.40;;;;;;5134500;27;20180;-70
2021/04/07 05:16:51;;;;;;;4.95;2.10;;;2.10;54.40;;;;;;5134330;27;20290;-70
2021/04/07 05:19:21;;;;;;;3.35;2.20;;;2.20;54.40;;;;;;5134423;27;20184;-70
2021/04/07 05:21:56;;;;;;;3.50;1.98;;;2.20;54.10;;;;;;5134610;27;20218;-70
2021/04/07 05:24:27;;;;;;;3.40;2.05;;;2.10;53.40;;;;;;5134544;27;20182;-70
2021/04/07 05:26:54;;;;;;;4.90;2.50;;;2.20;53.60;;;;;;5134702;27;20195;-70
2021/04/07 05:29:24;;;;;;;4.35;2.33;;;2.20;53.60;;;;;;5133350;27;20826;-70
2021/04/07 05:31:51;;;;;;;5.95;2.88;;;2.20;53.50;;;;;;5134364;27;20192;-70
2021/04/07 05:34:18;;;;;;;6.28;2.28;;;2.20;53.60;;;;;;5133785;27;20192;-70
2021/04/07 05:36:54;;;;;;;2.72;1.92;;;2.20;53.60;;;;;;5134209;27;20183;-69
2021/04/07 05:39:26;;;;;;;4.80;2.63;;;2.20;53.50;;;;;;5133372;27;20221;-70
2021/04/07 05:41:55;;;;;;;4.65;4.03;;;2.20;53.70;;;;;;5134276;27;20685;-69
2021/04/07 05:44:31;;;;;;;3.88;3.50;;;2.20;53.40;;;;;;5133883;27;20195;-70
2021/04/07 05:46:58;;;;;;;3.80;2.30;;;2.20;53.00;;;;;;5134074;27;20232;-70
2021/04/07 05:49:27;;;;;;;3.58;2.67;;;2.20;52.70;;;;;;5133421;27;20227;-69
2021/04/07 05:51:57;;;;;;;3.80;2.65;;;2.20;52.90;;;;;;5134088;27;20192;-70
2021/04/07 05:54:39;;;;;;;3.00;2.70;;;2.30;52.90;;;;;;5133694;27;20184;-70
2021/04/07 05:57:09;;;;;;;4.05;3.05;;;2.30;53.10;;;;;;5131018;27;20598;-70
2021/04/07 05:59:55;;;;;;;3.13;2.53;;;2.40;53.00;;;;;;5124798;27;20543;-70
2021/04/07 06:02:24;;;;;;;2.90;2.30;;;2.40;52.40;;;;;;5131223;27;20226;-70
2021/04/07 06:08:03;;;;;;;5.40;2.88;;;2.50;52.30;;;;;;5117416;27;20314;-70
2021/04/07 06:10:31;;;;;;;3.88;2.47;;;2.60;52.00;;;;;;5106593;28;20192;-69
2021/04/07 06:12:59;;;;;;;3.45;2.40;;;2.60;51.70;;;;;;5090867;28;20192;-69
2021/04/07 06:15:26;;;;;;;2.90;2.20;;;2.60;52.10;;;;;;5089651;28;20251;-70
2021/04/07 06:18:08;;;;;;;4.03;2.55;;;2.60;51.70;;;;;;5089358;28;20643;-70
2021/04/07 06:20:37;;;;;;;3.60;2.85;;;2.70;51.50;;;;;;5101087;28;20283;-70
2021/04/07 06:23:13;;;;;;;2.92;2.40;;;2.70;51.40;;;;;;5104797;28;20188;-70
2021/04/07 06:25:43;;;;;;;5.28;3.03;;;2.80;51.70;;;;;;5100499;28;20196;-70
2021/04/07 06:28:16;;;;;;;2.80;2.15;;;2.90;52.10;;;;;;5105364;28;20188;-70
2021/04/07 06:30:54;;;;;;;2.92;2.33;;;2.90;52.00;;;;;;5101281;28;20219;-70
2021/04/07 06:33:26;;;;;;;3.10;2.17;;;3.00;52.10;;;;;;5095387;28;20188;-70
2021/04/07 06:35:59;;;;;;;3.88;2.60;;;3.00;52.20;;;;;;5106724;28;20197;-69
2021/04/07 06:38:39;;;;;;;3.22;2.35;;;3.10;52.00;;;;;;5103832;28;20593;-70
2021/04/07 06:41:12;;;;;;;4.15;2.97;;;3.10;51.60;;;;;;5093859;28;20242;-70
2021/04/07 06:43:52;;;;;;;3.75;3.25;;;3.10;51.40;;;;;;5090588;28;20662;-70
2021/04/07 06:46:22;;;;;;;3.58;2.60;;;3.20;51.00;;;;;;5106783;28;20216;-70
2021/04/07 06:48:55;;;;;;;3.15;2.30;;;3.30;50.90;;;;;;5106766;28;20238;-70
2021/04/07 06:51:24;;;;;;;3.17;2.03;;;3.40;50.70;;;;;;5106630;28;20199;-69
2021/04/07 06:53:59;;;;;;;2.72;2.35;;;3.50;50.20;;;;;;5102407;28;20275;-69
2021/04/07 06:56:28;;;;;;;4.30;2.25;;;3.60;49.80;;;;;;5106850;28;20192;-70
2021/04/07 06:58:59;;;;;;;3.05;2.42;;;3.70;49.50;;;;;;5101755;28;20246;-70
2021/04/07 07:01:26;;;;;;;5.05;4.00;;;3.70;49.40;;;;;;5104566;28;20221;-70
2021/04/07 07:03:57;;;;;;;4.50;3.28;;;3.70;48.80;;;;;;5107733;28;20983;-70
2021/04/07 07:06:26;;;;;;;3.50;2.70;;;3.60;49.00;;;;;;5106297;28;20224;-70
2021/04/07 07:08:57;;;;;;;3.25;2.60;;;3.50;50.00;;;;;;5106535;28;20204;-70
2021/04/07 07:11:28;;;;;;;5.05;2.78;;;3.40;51.40;;;;;;5103497;28;20241;-70
2021/04/07 07:13:58;;;;;;;7.10;6.30;;;3.20;52.80;;;;;;5088439;28;20189;-71
2021/04/07 07:16:32;;;;;;;3.83;2.58;;;3.10;54.00;;;;;;5105497;28;20193;-71
2021/04/07 07:18:58;;;;;;;6.32;2.65;;;3.10;54.60;;;;;;5094590;28;20193;-71
2021/04/07 07:21:30;;;;;;;3.88;2.63;;;3.20;55.00;;;;;;5092791;28;20189;-71
2021/04/07 07:24:01;;;;;;;7.78;3.22;;;3.20;55.00;;;;;;5075008;28;20186;-70
2021/04/07 07:26:31;;;;;;;6.45;2.72;;;3.40;55.00;;;;;;5079005;28;20687;-70
2021/04/07 07:29:01;;;;;;;3.58;2.58;;;3.70;54.80;;;;;;5075498;28;20186;-70
2021/04/07 07:31:33;;;;;;;4.68;2.45;;;4.20;53.20;;;;;;5077171;28;20190;-71
2021/04/07 07:34:02;;;;;;;4.03;3.22;;;4.60;53.40;;;;;;5075603;28;20185;-70
2021/04/07 07:36:37;;;;;;;4.55;2.67;;;5.10;52.20;;;;;;5077243;28;20239;-70
2021/04/07 07:39:06;;;;;;;3.13;2.60;;;5.90;52.60;;;;;;5075414;28;20194;-71
2021/04/07 07:41:38;;;;;;;7.40;2.55;;;7.10;51.30;;;;;;5075938;28;20239;-70
2021/04/07 07:44:08;;;;;;;2.90;2.55;;;8.50;47.00;;;;;;5090747;28;20234;-71
2021/04/07 07:46:39;;;;;;;3.60;2.33;;;10.60;42.10;;;;;;5075549;28;21142;-72
2021/04/07 07:49:14;;;;;;;4.95;2.08;;;12.20;39.30;;;;;;5074767;28;20201;-71
2021/04/07 07:51:50;;;;;;;2.72;2.10;;;13.90;30.70;;;;;;5074431;28;20197;-70
2021/04/07 07:54:20;;;;;;;3.50;2.63;;;13.40;27.20;;;;;;5086727;28;20189;-70
2021/04/07 07:56:48;;;;;;;2.60;1.95;;;12.40;27.60;;;;;;5076661;28;20242;-70
2021/04/07 07:59:28;;;;;;;2.58;1.80;;;11.60;28.10;;;;;;5091461;28;20195;-71
2021/04/07 08:01:57;;;;;;;5.10;2.10;;;10.80;27.00;;;;;;5073632;28;20185;-71
2021/04/07 08:04:30;;;;;;;2.70;1.98;;;10.10;27.50;;;;;;5079581;28;20181;-71
2021/04/07 08:07:01;;;;;;;3.30;2.15;;;9.60;29.10;;;;;;5091924;28;20747;-70
2021/04/07 08:09:32;;;;;;;3.20;1.92;;;9.20;29.70;;;;;;5081707;28;20200;-71
2021/04/07 08:12:03;;;;;;;3.40;1.95;;;8.80;29.90;;;;;;5073539;28;20678;-71
2021/04/07 08:14:30;;;;;;;4.10;2.53;;;8.50;30.30;;;;;;5079133;28;20184;-71
2021/04/07 08:17:01;;;;;;;4.00;2.78;;;8.10;30.30;;;;;;5080024;28;20185;-70
2021/04/07 08:19:30;;;;;;;7.30;4.47;;;7.90;31.30;;;;;;5083829;28;20190;-70
2021/04/07 08:22:03;;;;;;;3.88;2.80;;;7.70;30.30;;;;;;5091174;28;20184;-70
2021/04/07 08:24:36;;;;;;;3.90;2.67;;;7.50;31.20;;;;;;5073216;28;20186;-71
2021/04/07 08:27:14;;;;;;;3.13;2.53;;;7.50;31.80;;;;;;5074380;28;20283;-71
2021/04/07 08:29:43;;;;;;;4.38;1.90;;;7.40;31.90;;;;;;5083825;28;20173;-71
2021/04/07 08:32:26;;;;;;;4.85;2.08;;;7.20;31.00;;;;;;5072314;28;20189;-71
2021/04/07 08:35:04;;;;;;;3.10;1.98;;;7.00;31.70;;;;;;5070216;28;20284;-70
2021/04/07 08:37:36;;;;;;;3.45;1.65;;;6.80;31.90;;;;;;5085730;28;20196;-70
2021/04/07 08:40:12;;;;;;;5.85;2.45;;;6.70;33.30;;;;;;5083851;28;20201;-71
2021/04/07 08:42:40;;;;;;;3.05;1.95;;;6.80;33.20;;;;;;5085788;28;20205;-70
2021/04/07 08:45:14;;;;;;;4.35;2.10;;;7.00;33.40;;;;;;5084538;28;20259;-70
2021/04/07 08:48:01;;;;;;;2.55;2.00;;;7.00;32.90;;;;;;5081674;28;20225;-70
2021/04/07 08:50:53;;;;;;;2.85;2.03;;;6.90;32.90;;;;;;5086562;28;20189;-70
2021/04/07 08:53:21;;;;;;;6.40;2.63;;;6.90;32.90;;;;;;5085948;28;20189;-70
2021/04/07 08:55:54;;;;;;;3.83;2.05;;;6.80;32.30;;;;;;5085312;28;20656;-70
2021/04/07 08:58:27;;;;;;;2.85;2.33;;;6.50;32.00;;;;;;5085180;28;20197;-70
2021/04/07 09:01:01;;;;;;;4.50;3.45;;;6.20;32.30;;;;;;5085382;28;20221;-71
2021/04/07 09:03:45;;;;;;;3.17;2.08;;;6.10;33.60;;;;;;5085464;28;20188;-70
2021/04/07 09:06:27;;;;;;;5.10;2.40;;;6.00;34.30;;;;;;5079242;28;20339;-70
2021/04/07 09:09:05;;;;;;;2.55;1.70;;;5.90;34.70;;;;;;5085848;28;20272;-70
2021/04/07 09:11:42;;;;;;;2.78;1.30;;;5.90;35.60;;;;;;5087202;28;20637;-70
2021/04/07 09:14:26;;;;;;;2.72;1.48;;;5.70;38.50;;;;;;5080998;28;20196;-71
2021/04/07 09:17:02;;;;;;;4.65;1.55;;;5.60;40.50;;;;;;5084756;28;20196;-70
2021/04/07 09:19:37;;;;;;;2.58;1.60;;;5.50;41.60;;;;;;5085250;28;20545;-70
2021/04/07 09:22:21;;;;;;;5.43;2.25;;;5.30;41.70;;;;;;5084803;28;20646;-70
2021/04/07 09:24:53;;;;;;;4.20;1.80;;;5.30;41.70;;;;;;5082765;28;20703;-70
2021/04/07 09:27:26;;;;;;;2.53;1.58;;;5.20;41.90;;;;;;5085793;28;20285;-70
2021/04/07 09:30:01;;;;;;;2.25;1.48;;;5.10;40.90;;;;;;5085152;28;20257;-70
2021/04/07 09:32:30;;;;;;;3.95;1.85;;;5.00;41.70;;;;;;5082048;28;20189;-70
2021/04/07 09:35:03;;;;;;;5.18;1.65;;;5.00;42.10;;;;;;5083297;28;20211;-70
2021/04/07 09:37:37;;;;;;;4.40;1.77;;;5.00;43.20;;;;;;5084502;28;20275;-70
2021/04/07 09:40:15;;;;;;;2.47;1.83;;;4.90;43.20;;;;;;5082980;28;20200;-70
2021/04/07 09:42:50;;;;;;;3.85;2.00;;;4.80;43.20;;;;;;5083218;28;20193;-70
2021/04/07 09:45:30;;;;;;;3.35;2.08;;;4.80;43.70;;;;;;5082672;28;20627;-70
2021/04/07 09:48:03;;;;;;;3.55;2.00;;;4.80;43.60;;;;;;5086199;28;20238;-70
2021/04/07 09:50:42;;;;;;;3.72;1.90;;;4.70;43.60;;;;;;5084625;28;20263;-70
2021/04/07 09:53:28;;;;;;;5.50;1.80;;;4.70;43.00;;;;;;5081474;28;20189;-70
2021/04/07 09:56:05;;;;;;;4.30;2.45;;;4.80;43.00;;;;;;5086946;28;20695;-70
2021/04/07 09:58:48;;;;;;;3.05;1.90;;;4.80;42.10;;;;;;5082514;28;20201;-71
2021/04/07 10:01:39;;;;;;;4.03;1.80;;;4.90;41.80;;;;;;5086294;28;20215;-72
2021/04/07 10:04:39;;;;;;;2.33;1.35;;;5.00;40.80;;;;;;5083322;28;20223;-73
2021/04/07 10:07:16;;;;;;;6.82;1.75;;;5.10;38.10;;;;;;5081866;28;20238;-73
2021/04/07 10:10:02;;;;;;;5.07;1.80;;;5.80;43.60;;;;;;5084186;28;20676;-73
2021/04/07 10:12:32;;;;;;;3.88;1.38;;;7.50;37.90;;;;;;5082351;28;20235;-70
2021/04/07 10:15:03;;;;;;;3.10;1.25;;;8.20;33.30;;;;;;5083875;28;20200;-71
2021/04/07 10:17:37;;;;;;;2.50;1.50;;;8.80;32.40;;;;;;5082563;28;20285;-74
2021/04/07 10:20:11;;;;;;;3.45;1.92;;;10.30;36.50;;;;;;5082799;28;20208;-71
2021/04/07 10:22:38;;;;;;;2.70;1.90;;;14.30;32.40;;;;;;5084051;28;20196;-73
2021/04/07 10:25:12;;;;;;;4.57;1.60;;;15.00;24.70;;;;;;5084957;28;20193;-76
2021/04/07 10:27:40;;;;;;;3.42;1.50;;;14.00;21.50;;;;;;5084090;28;20304;-71
2021/04/07 10:30:14;;;;;;;2.70;1.70;;;12.80;21.30;;;;;;5084558;28;20261;-70
2021/04/07 10:32:47;;;;;;;4.50;2.30;;;11.70;22.60;;;;;;5084375;28;20229;-71
2021/04/07 10:35:21;;;;;;;3.75;2.35;;;11.00;23.80;;;;;;5085255;28;20692;-71
2021/04/07 10:37:53;;;;;;;2.35;1.77;;;10.20;24.20;;;;;;5085344;28;20637;-71
2021/04/07 10:40:21;;;;;;;4.38;1.90;;;9.50;26.40;;;;;;5084905;28;20197;-70
2021/04/07 10:42:53;;;;;;;4.13;2.20;;;9.10;27.00;;;;;;5081384;28;20185;-71
2021/04/07 10:45:27;;;;;;;2.45;1.30;;;8.80;28.40;;;;;;5081126;28;20228;-70
2021/04/07 10:48:02;;;;;;;3.40;2.30;;;9.90;30.00;;;;;;5087413;28;20282;-70
2021/04/07 10:50:36;;;;;;;2.90;1.50;;;11.00;28.10;;;;;;5078982;28;20300;-71
2021/04/07 10:53:04;;;;;;;2.40;1.65;;;10.80;26.00;;;;;;5074907;28;20216;-70
2021/04/07 10:55:46;;;;;;;3.92;1.70;;;10.40;26.00;;;;;;5073799;28;20197;-71
2021/04/07 10:58:25;;;;;;;6.88;2.22;;;10.30;27.20;;;;;;5081046;28;20224;-70
2021/04/07 11:00:55;;;;;;;3.30;1.88;;;10.40;27.30;;;;;;5091598;28;20193;-70
2021/04/07 11:03:36;;;;;;;3.05;1.60;;;10.00;25.90;;;;;;5087037;28;20189;-71
2021/04/07 11:06:21;;;;;;;2.20;1.48;;;9.60;26.20;;;;;;5076889;28;20218;-71
2021/04/07 11:08:50;;;;;;;3.20;1.90;;;9.30;26.50;;;;;;5086815;28;20202;-71
2021/04/07 11:11:26;;;;;;;3.90;1.52;;;8.90;26.20;;;;;;5080944;28;20190;-71
2021/04/07 11:13:56;;;;;;;3.95;1.40;;;8.60;26.70;;;;;;5077870;28;20280;-71
2021/04/07 11:16:34;;;;;;;3.88;1.20;;;8.30;26.90;;;;;;5071580;28;20698;-73
2021/04/07 11:19:16;;;;;;;3.67;1.73;;;8.20;27.40;;;;;;5085419;28;20188;-70
2021/04/07 11:21:47;;;;;;;4.03;1.70;;;8.00;27.70;;;;;;5085873;28;20193;-71
2021/04/07 11:24:19;;;;;;;7.72;3.28;;;7.70;27.90;;;;;;5087934;28;20201;-71
2021/04/07 11:26:54;;;;;;;5.38;3.03;;;7.40;28.60;;;;;;5083115;28;20214;-71
2021/04/07 11:29:24;;;;;;;4.03;2.08;;;7.10;31.10;;;;;;5088866;28;20733;-71
2021/04/07 11:31:56;;;;;;;6.75;2.85;;;6.70;34.90;;;;;;5091392;28;20196;-70
2021/04/07 11:34:35;;;;;;;34.80;22.02;;;6.30;35.40;;;;;;5089794;28;20254;-71
2021/04/07 11:37:18;;;;;;;129.95;75.07;;;6.10;36.40;;;;;;5090372;28;20236;-71
2021/04/07 11:39:52;;;;;;;49.33;31.05;;;6.90;45.60;;;;;;5084073;28;20196;-70
2021/04/07 11:42:23;;;;;;;88.07;53.67;;;8.90;46.60;;;;;;5084817;28;20232;-71
2021/04/07 11:44:50;;;;;;;37.90;28.85;;;10.60;39.70;;;;;;5073767;28;20632;-71
2021/04/07 11:47:18;;;;;;;4.65;2.50;;;11.30;32.10;;;;;;5073725;28;20236;-71
2021/04/07 11:49:46;;;;;;;3.67;2.30;;;11.50;29.00;;;;;;5073784;28;20197;-71
2021/04/07 11:52:15;;;;;;;5.22;2.00;;;12.00;28.00;;;;;;5073854;28;20209;-72
2021/04/07 11:54:42;;;;;;;4.80;3.00;;;12.00;26.40;;;;;;5073710;28;20215;-71
2021/04/07 11:57:09;;;;;;;3.10;1.65;;;12.00;25.30;;;;;;5073742;28;20194;-71
2021/04/07 11:59:38;;;;;;;18.10;14.25;;;11.90;24.90;;;;;;5074968;28;20656;-71
2021/04/07 12:02:10;;;;;;;13.20;10.27;;;11.50;24.90;;;;;;5093930;28;20200;-71
2021/04/07 12:04:38;;;;;;;13.75;8.27;;;11.10;26.20;;;;;;5093574;28;20193;-70
2021/04/07 12:07:07;;;;;;;34.08;24.65;;;10.80;28.20;;;;;;5092557;28;20239;-70
2021/04/07 12:09:38;;;;;;;13.07;9.85;;;11.00;29.70;;;;;;5093220;28;20199;-71
2021/04/07 12:12:11;;;;;;;5.78;3.08;;;11.40;29.00;;;;;;5093598;28;20201;-71
2021/04/07 12:14:38;;;;;;;14.98;7.03;;;11.60;25.90;;;;;;5093600;28;20566;-71
2021/04/07 12:17:07;;;;;;;14.30;9.98;;;11.30;24.60;;;;;;5093215;28;20192;-71
2021/04/07 12:19:35;;;;;;;30.80;23.35;;;10.90;24.20;;;;;;5093368;28;20232;-70
2021/04/07 12:22:03;;;;;;;12.85;7.05;;;10.30;25.80;;;;;;5093541;28;20658;-71
2021/04/07 12:24:35;;;;;;;5.05;2.42;;;9.80;26.80;;;;;;5093538;28;20197;-70
2021/04/07 12:27:10;;;;;;;3.15;1.85;;;9.40;27.80;;;;;;5093212;28;20221;-70
2021/04/07 12:29:36;;;;;;;7.10;4.78;;;9.10;28.70;;;;;;5093203;28;20246;-71
2021/04/07 12:32:07;;;;;;;8.38;5.15;;;9.30;30.80;;;;;;5093159;28;20193;-71
2021/04/07 12:34:34;;;;;;;5.30;4.38;;;9.40;30.60;;;;;;5093325;28;20189;-70
2021/04/07 12:37:02;;;;;;;3.25;1.92;;;9.30;30.50;;;;;;5093123;28;20212;-71
2021/04/07 12:39:29;;;;;;;2.97;2.22;;;9.20;31.00;;;;;;5092911;28;20193;-71
2021/04/07 12:41:59;;;;;;;4.57;2.00;;;9.10;31.20;;;;;;5092935;28;20197;-70
2021/04/07 12:44:26;;;;;;;4.10;2.30;;;9.10;30.30;;;;;;5093026;28;20192;-71
2021/04/07 12:46:53;;;;;;;2.83;2.00;;;9.00;30.20;;;;;;5092748;28;20220;-71
2021/04/07 12:49:20;;;;;;;4.90;2.38;;;8.90;30.60;;;;;;5092628;28;20208;-70
2021/04/07 12:51:47;;;;;;;4.57;1.95;;;9.00;31.30;;;;;;5092849;28;20582;-70
2021/04/07 12:54:15;;;;;;;4.75;2.78;;;8.90;30.20;;;;;;5092496;28;20257;-70
2021/04/07 12:56:43;;;;;;;3.67;2.00;;;8.80;31.00;;;;;;5092815;28;20693;-70
2021/04/07 12:59:10;;;;;;;2.10;1.48;;;8.80;30.90;;;;;;5092612;28;20189;-70
2021/04/07 13:01:41;;;;;;;2.85;1.70;;;8.70;31.00;;;;;;5092353;28;20280;-70
2021/04/07 13:04:09;;;;;;;2.83;1.85;;;8.70;31.60;;;;;;5092847;28;20559;-70
2021/04/07 13:06:36;;;;;;;3.70;2.05;;;9.00;31.40;;;;;;5092208;28;20225;-70
2021/04/07 13:09:07;;;;;;;5.32;2.40;;;9.00;30.50;;;;;;5092570;28;20199;-71
2021/04/07 13:11:35;;;;;;;4.72;3.10;;;9.20;31.30;;;;;;5092493;28;20238;-70
2021/04/07 13:14:04;;;;;;;3.13;2.08;;;9.40;31.60;;;;;;5092335;28;20192;-71
2021/04/07 13:16:36;;;;;;;4.50;2.72;;;9.60;32.20;;;;;;5091933;28;20189;-70
2021/04/07 13:19:07;;;;;;;2.88;1.73;;;9.80;32.70;;;;;;5092185;28;20197;-71
2021/04/07 13:21:38;;;;;;;5.50;2.60;;;9.90;29.40;;;;;;5092381;28;20246;-71
2021/04/07 13:24:11;;;;;;;4.13;1.45;;;10.10;29.40;;;;;;5092106;28;20189;-71